JPS weather

Jps Field
Bald Knob, AR, Arkansas, United States

Public forecast

Using degrees Fahrenheit for public forecast. Weather courtesy of forecast.io.

Closest aviation weather report (METAR) to Jps Field

Closest report is Searcy Municipal Airport, 9.3 nm (17.3 km) WSW. Retrieved 2020/01/17 18:29 UTC (0 seconds ago):

KSRC 171829Z AUTO 08004KT 10SM BKN027 OVC040 05/00 A3039 RMK AO2

Closest aviation forecast (TAF) to Jps Field

Closest forecast is Little Rock Air Force Base, 36.1 nm (66.9 km) SW. Retrieved 2020/01/17 15:03 UTC (3 hours ago):

TAF KLRF 171500Z 1715/1821 07012KT 9999 BKN060 OVC100 QNH3052INS BECMG 1720/1721 11006KT 9999 BKN025 OVC040 WS020/20035KT 620309 510109 QNH3018INS BECMG 1805/1806 19010G15KT 6000 RA OVC010 WS020/18045KT 620109 540109 QNH3007INS BECMG 1817/1818 30012G20KT 9999 NSW BKN020 620105 QNH3017INS TX10/1721Z TN01/1812Z